sensor_id;sensor_type;location;lat;lon;timestamp;P1;durP1;ratioP1;P2;durP2;ratioP2
9418;SDS011;4748;50.802;7.132;2023-04-06T00:01:26;3.07;;;2.57;;
9418;SDS011;4748;50.802;7.132;2023-04-06T00:03:52;2.00;;;1.90;;
9418;SDS011;4748;50.802;7.132;2023-04-06T00:06:17;2.70;;;1.93;;
9418;SDS011;4748;50.802;7.132;2023-04-06T00:08:42;3.40;;;1.80;;
9418;SDS011;4748;50.802;7.132;2023-04-06T00:11:09;4.53;;;2.10;;
9418;SDS011;4748;50.802;7.132;2023-04-06T00:13:34;1.70;;;1.60;;
9418;SDS011;4748;50.802;7.132;2023-04-06T00:16:00;4.83;;;1.67;;
9418;SDS011;4748;50.802;7.132;2023-04-06T00:18:25;1.63;;;1.03;;
9418;SDS011;4748;50.802;7.132;2023-04-06T00:20:51;2.77;;;1.83;;
9418;SDS011;4748;50.802;7.132;2023-04-06T00:23:17;10.03;;;1.33;;
9418;SDS011;4748;50.802;7.132;2023-04-06T00:25:42;1.17;;;1.10;;
9418;SDS011;4748;50.802;7.132;2023-04-06T00:28:07;3.90;;;1.70;;
9418;SDS011;4748;50.802;7.132;2023-04-06T00:30:33;2.40;;;1.27;;
9418;SDS011;4748;50.802;7.132;2023-04-06T00:32:58;3.77;;;1.27;;
9418;SDS011;4748;50.802;7.132;2023-04-06T00:35:23;3.80;;;1.87;;
9418;SDS011;4748;50.802;7.132;2023-04-06T00:37:49;3.00;;;1.97;;
9418;SDS011;4748;50.802;7.132;2023-04-06T00:40:14;5.70;;;1.93;;
9418;SDS011;4748;50.802;7.132;2023-04-06T00:42:40;1.43;;;1.33;;
9418;SDS011;4748;50.802;7.132;2023-04-06T00:45:06;1.30;;;1.20;;
9418;SDS011;4748;50.802;7.132;2023-04-06T00:47:32;3.50;;;1.73;;
9418;SDS011;4748;50.802;7.132;2023-04-06T00:49:58;1.63;;;1.13;;
9418;SDS011;4748;50.802;7.132;2023-04-06T00:52:23;2.00;;;1.80;;
9418;SDS011;4748;50.802;7.132;2023-04-06T00:54:49;7.60;;;1.50;;
9418;SDS011;4748;50.802;7.132;2023-04-06T00:57:15;2.87;;;1.27;;
9418;SDS011;4748;50.802;7.132;2023-04-06T00:59:41;3.50;;;1.63;;
9418;SDS011;4748;50.802;7.132;2023-04-06T01:02:07;1.47;;;1.37;;
9418;SDS011;4748;50.802;7.132;2023-04-06T01:04:33;3.23;;;1.23;;
9418;SDS011;4748;50.802;7.132;2023-04-06T01:06:59;2.20;;;1.00;;
9418;SDS011;4748;50.802;7.132;2023-04-06T01:09:26;2.60;;;1.30;;
9418;SDS011;4748;50.802;7.132;2023-04-06T01:11:53;2.03;;;1.17;;
9418;SDS011;4748;50.802;7.132;2023-04-06T01:14:18;3.47;;;1.97;;
9418;SDS011;4748;50.802;7.132;2023-04-06T01:16:44;1.50;;;1.40;;
9418;SDS011;4748;50.802;7.132;2023-04-06T01:19:10;5.37;;;1.63;;
9418;SDS011;4748;50.802;7.132;2023-04-06T01:21:37;1.57;;;1.30;;
9418;SDS011;4748;50.802;7.132;2023-04-06T01:24:03;4.10;;;1.83;;
9418;SDS011;4748;50.802;7.132;2023-04-06T01:26:29;2.73;;;0.97;;
9418;SDS011;4748;50.802;7.132;2023-04-06T01:28:55;1.93;;;1.80;;
9418;SDS011;4748;50.802;7.132;2023-04-06T01:31:21;1.20;;;0.73;;
9418;SDS011;4748;50.802;7.132;2023-04-06T01:33:47;0.87;;;0.80;;
9418;SDS011;4748;50.802;7.132;2023-04-06T01:36:13;12.33;;;0.93;;
9418;SDS011;4748;50.802;7.132;2023-04-06T01:38:39;1.13;;;1.13;;
9418;SDS011;4748;50.802;7.132;2023-04-06T01:41:06;3.07;;;1.50;;
9418;SDS011;4748;50.802;7.132;2023-04-06T01:43:31;2.20;;;1.30;;
9418;SDS011;4748;50.802;7.132;2023-04-06T01:45:57;1.90;;;0.67;;
9418;SDS011;4748;50.802;7.132;2023-04-06T01:48:22;3.33;;;1.47;;
9418;SDS011;4748;50.802;7.132;2023-04-06T01:50:48;1.57;;;1.07;;
9418;SDS011;4748;50.802;7.132;2023-04-06T01:53:13;3.07;;;1.30;;
9418;SDS011;4748;50.802;7.132;2023-04-06T01:55:40;1.90;;;1.37;;
9418;SDS011;4748;50.802;7.132;2023-04-06T01:58:05;2.33;;;1.33;;
9418;SDS011;4748;50.802;7.132;2023-04-06T02:00:31;2.83;;;1.73;;
9418;SDS011;4748;50.802;7.132;2023-04-06T02:02:56;1.13;;;1.07;;
9418;SDS011;4748;50.802;7.132;2023-04-06T02:05:22;0.70;;;0.70;;
9418;SDS011;4748;50.802;7.132;2023-04-06T02:07:47;0.77;;;0.60;;
9418;SDS011;4748;50.802;7.132;2023-04-06T02:10:14;1.20;;;1.10;;
9418;SDS011;4748;50.802;7.132;2023-04-06T02:12:40;1.43;;;1.33;;
9418;SDS011;4748;50.802;7.132;2023-04-06T02:15:05;0.87;;;0.63;;
9418;SDS011;4748;50.802;7.132;2023-04-06T02:17:31;2.23;;;0.87;;
9418;SDS011;4748;50.802;7.132;2023-04-06T02:19:57;1.00;;;0.87;;
9418;SDS011;4748;50.802;7.132;2023-04-06T02:22:22;1.90;;;1.00;;
9418;SDS011;4748;50.802;7.132;2023-04-06T02:24:47;0.70;;;0.70;;
9418;SDS011;4748;50.802;7.132;2023-04-06T02:27:16;2.57;;;1.77;;
9418;SDS011;4748;50.802;7.132;2023-04-06T02:29:41;1.43;;;1.10;;
9418;SDS011;4748;50.802;7.132;2023-04-06T02:32:07;1.27;;;1.17;;
9418;SDS011;4748;50.802;7.132;2023-04-06T02:34:32;1.10;;;1.10;;
9418;SDS011;4748;50.802;7.132;2023-04-06T02:36:57;1.77;;;1.23;;
9418;SDS011;4748;50.802;7.132;2023-04-06T02:39:23;0.73;;;0.57;;
9418;SDS011;4748;50.802;7.132;2023-04-06T02:41:48;1.77;;;1.27;;
9418;SDS011;4748;50.802;7.132;2023-04-06T02:44:14;3.50;;;1.27;;
9418;SDS011;4748;50.802;7.132;2023-04-06T02:46:39;2.00;;;1.33;;
9418;SDS011;4748;50.802;7.132;2023-04-06T02:49:05;1.30;;;1.20;;
9418;SDS011;4748;50.802;7.132;2023-04-06T02:51:30;1.10;;;1.10;;
9418;SDS011;4748;50.802;7.132;2023-04-06T02:53:56;3.13;;;1.20;;
9418;SDS011;4748;50.802;7.132;2023-04-06T02:56:21;2.93;;;1.17;;
9418;SDS011;4748;50.802;7.132;2023-04-06T02:58:46;1.37;;;0.80;;
9418;SDS011;4748;50.802;7.132;2023-04-06T03:01:12;1.10;;;0.83;;
9418;SDS011;4748;50.802;7.132;2023-04-06T03:03:38;3.70;;;1.40;;
9418;SDS011;4748;50.802;7.132;2023-04-06T03:06:03;1.13;;;1.03;;
9418;SDS011;4748;50.802;7.132;2023-04-06T03:08:29;9.93;;;1.57;;
9418;SDS011;4748;50.802;7.132;2023-04-06T03:10:55;0.80;;;0.73;;
9418;SDS011;4748;50.802;7.132;2023-04-06T03:13:20;0.97;;;0.53;;
9418;SDS011;4748;50.802;7.132;2023-04-06T03:15:46;2.67;;;1.57;;
9418;SDS011;4748;50.802;7.132;2023-04-06T03:18:11;2.70;;;1.17;;
9418;SDS011;4748;50.802;7.132;2023-04-06T03:20:36;3.30;;;1.00;;
9418;SDS011;4748;50.802;7.132;2023-04-06T03:23:02;1.57;;;1.23;;
9418;SDS011;4748;50.802;7.132;2023-04-06T03:25:27;2.47;;;1.00;;
9418;SDS011;4748;50.802;7.132;2023-04-06T03:27:53;0.93;;;0.93;;
9418;SDS011;4748;50.802;7.132;2023-04-06T03:30:19;1.67;;;1.57;;
9418;SDS011;4748;50.802;7.132;2023-04-06T03:32:45;2.10;;;1.00;;
9418;SDS011;4748;50.802;7.132;2023-04-06T03:35:10;3.30;;;1.30;;
9418;SDS011;4748;50.802;7.132;2023-04-06T03:37:35;3.70;;;1.07;;
9418;SDS011;4748;50.802;7.132;2023-04-06T03:40:01;0.67;;;0.67;;
9418;SDS011;4748;50.802;7.132;2023-04-06T03:42:27;1.77;;;1.00;;
9418;SDS011;4748;50.802;7.132;2023-04-06T03:44:53;3.03;;;1.17;;
9418;SDS011;4748;50.802;7.132;2023-04-06T03:47:18;1.23;;;0.83;;
9418;SDS011;4748;50.802;7.132;2023-04-06T03:49:43;0.97;;;0.83;;
9418;SDS011;4748;50.802;7.132;2023-04-06T03:52:09;0.90;;;0.90;;
9418;SDS011;4748;50.802;7.132;2023-04-06T03:54:34;4.80;;;0.80;;
9418;SDS011;4748;50.802;7.132;2023-04-06T03:57:00;2.20;;;1.13;;
9418;SDS011;4748;50.802;7.132;2023-04-06T03:59:25;7.93;;;1.30;;
9418;SDS011;4748;50.802;7.132;2023-04-06T04:01:51;0.70;;;0.70;;
9418;SDS011;4748;50.802;7.132;2023-04-06T04:04:16;1.47;;;1.37;;
9418;SDS011;4748;50.802;7.132;2023-04-06T04:06:41;0.60;;;0.60;;
9418;SDS011;4748;50.802;7.132;2023-04-06T04:09:07;1.03;;;0.97;;
9418;SDS011;4748;50.802;7.132;2023-04-06T04:11:32;1.37;;;0.50;;
9418;SDS011;4748;50.802;7.132;2023-04-06T04:13:58;6.00;;;1.13;;
9418;SDS011;4748;50.802;7.132;2023-04-06T04:16:23;1.40;;;0.73;;
9418;SDS011;4748;50.802;7.132;2023-04-06T04:18:48;1.00;;;0.90;;
9418;SDS011;4748;50.802;7.132;2023-04-06T04:21:14;2.47;;;0.63;;
9418;SDS011;4748;50.802;7.132;2023-04-06T04:23:39;1.43;;;0.93;;
9418;SDS011;4748;50.802;7.132;2023-04-06T04:26:05;1.07;;;1.07;;
9418;SDS011;4748;50.802;7.132;2023-04-06T04:28:30;2.60;;;0.73;;
9418;SDS011;4748;50.802;7.132;2023-04-06T04:30:56;0.80;;;0.80;;
9418;SDS011;4748;50.802;7.132;2023-04-06T04:33:22;2.93;;;0.93;;
9418;SDS011;4748;50.802;7.132;2023-04-06T04:35:48;14.53;;;1.23;;
9418;SDS011;4748;50.802;7.132;2023-04-06T04:38:13;0.77;;;0.70;;
9418;SDS011;4748;50.802;7.132;2023-04-06T04:40:38;0.87;;;0.87;;
9418;SDS011;4748;50.802;7.132;2023-04-06T04:43:04;3.60;;;1.33;;
9418;SDS011;4748;50.802;7.132;2023-04-06T04:45:30;17.63;;;2.13;;
9418;SDS011;4748;50.802;7.132;2023-04-06T04:47:55;3.50;;;1.50;;
9418;SDS011;4748;50.802;7.132;2023-04-06T04:50:20;2.20;;;1.13;;
9418;SDS011;4748;50.802;7.132;2023-04-06T04:52:46;0.80;;;0.80;;
9418;SDS011;4748;50.802;7.132;2023-04-06T04:55:11;2.53;;;0.77;;
9418;SDS011;4748;50.802;7.132;2023-04-06T04:57:37;1.20;;;1.00;;
9418;SDS011;4748;50.802;7.132;2023-04-06T05:00:02;2.27;;;1.20;;
9418;SDS011;4748;50.802;7.132;2023-04-06T05:02:28;0.67;;;0.57;;
9418;SDS011;4748;50.802;7.132;2023-04-06T05:04:53;2.00;;;0.90;;
9418;SDS011;4748;50.802;7.132;2023-04-06T05:07:18;2.07;;;1.20;;
9418;SDS011;4748;50.802;7.132;2023-04-06T05:09:45;4.37;;;0.73;;
9418;SDS011;4748;50.802;7.132;2023-04-06T05:12:11;1.17;;;0.97;;
9418;SDS011;4748;50.802;7.132;2023-04-06T05:14:36;5.40;;;0.93;;
9418;SDS011;4748;50.802;7.132;2023-04-06T05:17:02;1.30;;;1.20;;
9418;SDS011;4748;50.802;7.132;2023-04-06T05:19:27;1.10;;;0.80;;
9418;SDS011;4748;50.802;7.132;2023-04-06T05:21:52;1.20;;;1.10;;
9418;SDS011;4748;50.802;7.132;2023-04-06T05:24:18;2.73;;;0.60;;
9418;SDS011;4748;50.802;7.132;2023-04-06T05:26:43;4.03;;;1.40;;
9418;SDS011;4748;50.802;7.132;2023-04-06T05:29:10;5.30;;;1.10;;
9418;SDS011;4748;50.802;7.132;2023-04-06T05:31:35;1.83;;;1.07;;
9418;SDS011;4748;50.802;7.132;2023-04-06T05:34:01;1.70;;;1.00;;
9418;SDS011;4748;50.802;7.132;2023-04-06T05:36:26;1.27;;;1.17;;
9418;SDS011;4748;50.802;7.132;2023-04-06T05:38:52;3.73;;;1.13;;
9418;SDS011;4748;50.802;7.132;2023-04-06T05:41:17;2.00;;;0.90;;
9418;SDS011;4748;50.802;7.132;2023-04-06T05:43:43;0.70;;;0.70;;
9418;SDS011;4748;50.802;7.132;2023-04-06T05:46:09;0.80;;;0.80;;
9418;SDS011;4748;50.802;7.132;2023-04-06T05:48:35;3.07;;;1.13;;
9418;SDS011;4748;50.802;7.132;2023-04-06T05:51:00;1.07;;;0.93;;
9418;SDS011;4748;50.802;7.132;2023-04-06T05:53:27;2.30;;;0.87;;
9418;SDS011;4748;50.802;7.132;2023-04-06T05:55:53;1.53;;;1.17;;
9418;SDS011;4748;50.802;7.132;2023-04-06T05:58:19;6.53;;;1.30;;
9418;SDS011;4748;50.802;7.132;2023-04-06T06:00:44;1.07;;;0.80;;
9418;SDS011;4748;50.802;7.132;2023-04-06T06:03:10;1.40;;;1.30;;
9418;SDS011;4748;50.802;7.132;2023-04-06T06:05:36;1.30;;;1.00;;
9418;SDS011;4748;50.802;7.132;2023-04-06T06:08:02;1.97;;;1.17;;
9418;SDS011;4748;50.802;7.132;2023-04-06T06:10:27;1.43;;;1.10;;
9418;SDS011;4748;50.802;7.132;2023-04-06T06:12:53;6.93;;;1.43;;
9418;SDS011;4748;50.802;7.132;2023-04-06T06:15:18;2.63;;;1.23;;
9418;SDS011;4748;50.802;7.132;2023-04-06T06:17:44;1.67;;;1.53;;
9418;SDS011;4748;50.802;7.132;2023-04-06T06:20:09;4.20;;;1.33;;
9418;SDS011;4748;50.802;7.132;2023-04-06T06:22:35;3.53;;;1.43;;
9418;SDS011;4748;50.802;7.132;2023-04-06T06:25:01;1.90;;;1.40;;
9418;SDS011;4748;50.802;7.132;2023-04-06T06:27:27;0.70;;;0.70;;
9418;SDS011;4748;50.802;7.132;2023-04-06T06:29:52;1.60;;;0.63;;
9418;SDS011;4748;50.802;7.132;2023-04-06T06:32:18;1.33;;;1.23;;
9418;SDS011;4748;50.802;7.132;2023-04-06T06:34:43;1.37;;;1.27;;
9418;SDS011;4748;50.802;7.132;2023-04-06T06:37:09;1.93;;;1.30;;
9418;SDS011;4748;50.802;7.132;2023-04-06T06:39:34;5.80;;;1.10;;
9418;SDS011;4748;50.802;7.132;2023-04-06T06:42:00;2.07;;;1.53;;
9418;SDS011;4748;50.802;7.132;2023-04-06T06:44:26;1.97;;;1.10;;
9418;SDS011;4748;50.802;7.132;2023-04-06T06:46:52;11.33;;;1.57;;
9418;SDS011;4748;50.802;7.132;2023-04-06T06:49:17;2.47;;;1.40;;
9418;SDS011;4748;50.802;7.132;2023-04-06T06:51:43;5.37;;;1.10;;
9418;SDS011;4748;50.802;7.132;2023-04-06T06:54:09;5.40;;;2.43;;
9418;SDS011;4748;50.802;7.132;2023-04-06T06:56:34;4.30;;;1.87;;
9418;SDS011;4748;50.802;7.132;2023-04-06T06:59:02;8.27;;;1.73;;
9418;SDS011;4748;50.802;7.132;2023-04-06T07:01:27;6.50;;;2.47;;
9418;SDS011;4748;50.802;7.132;2023-04-06T07:03:52;4.83;;;1.80;;
9418;SDS011;4748;50.802;7.132;2023-04-06T07:06:18;3.87;;;1.50;;
9418;SDS011;4748;50.802;7.132;2023-04-06T07:08:43;1.90;;;1.73;;
9418;SDS011;4748;50.802;7.132;2023-04-06T07:11:08;4.33;;;2.00;;
9418;SDS011;4748;50.802;7.132;2023-04-06T07:13:34;2.93;;;1.67;;
9418;SDS011;4748;50.802;7.132;2023-04-06T07:15:59;2.63;;;1.50;;
9418;SDS011;4748;50.802;7.132;2023-04-06T07:18:24;1.23;;;1.17;;
9418;SDS011;4748;50.802;7.132;2023-04-06T07:20:50;2.53;;;2.17;;
9418;SDS011;4748;50.802;7.132;2023-04-06T07:23:15;2.00;;;1.90;;
9418;SDS011;4748;50.802;7.132;2023-04-06T07:25:41;3.63;;;2.30;;
9418;SDS011;4748;50.802;7.132;2023-04-06T07:28:06;1.33;;;1.20;;
9418;SDS011;4748;50.802;7.132;2023-04-06T07:30:32;2.20;;;1.50;;
9418;SDS011;4748;50.802;7.132;2023-04-06T07:32:57;1.20;;;1.07;;
9418;SDS011;4748;50.802;7.132;2023-04-06T07:35:24;3.90;;;1.20;;
9418;SDS011;4748;50.802;7.132;2023-04-06T07:37:55;2.00;;;1.73;;
9418;SDS011;4748;50.802;7.132;2023-04-06T07:40:21;2.10;;;1.53;;
9418;SDS011;4748;50.802;7.132;2023-04-06T07:42:46;3.10;;;1.87;;
9418;SDS011;4748;50.802;7.132;2023-04-06T07:45:12;3.03;;;1.90;;
9418;SDS011;4748;50.802;7.132;2023-04-06T07:47:38;8.20;;;2.50;;
9418;SDS011;4748;50.802;7.132;2023-04-06T07:50:03;2.13;;;1.97;;
9418;SDS011;4748;50.802;7.132;2023-04-06T07:52:30;2.00;;;1.83;;
9418;SDS011;4748;50.802;7.132;2023-04-06T07:54:57;3.63;;;2.27;;
9418;SDS011;4748;50.802;7.132;2023-04-06T07:57:23;2.87;;;2.27;;
9418;SDS011;4748;50.802;7.132;2023-04-06T07:59:48;4.30;;;3.43;;
9418;SDS011;4748;50.802;7.132;2023-04-06T08:02:13;5.33;;;2.27;;
9418;SDS011;4748;50.802;7.132;2023-04-06T08:04:39;3.60;;;2.47;;
9418;SDS011;4748;50.802;7.132;2023-04-06T08:07:05;2.60;;;1.83;;
9418;SDS011;4748;50.802;7.132;2023-04-06T08:09:30;4.50;;;2.80;;
9418;SDS011;4748;50.802;7.132;2023-04-06T08:11:56;5.23;;;2.17;;
9418;SDS011;4748;50.802;7.132;2023-04-06T08:14:21;2.53;;;2.37;;
9418;SDS011;4748;50.802;7.132;2023-04-06T08:16:47;2.57;;;1.83;;
9418;SDS011;4748;50.802;7.132;2023-04-06T08:19:12;3.97;;;2.17;;
9418;SDS011;4748;50.802;7.132;2023-04-06T08:21:38;6.43;;;3.17;;
9418;SDS011;4748;50.802;7.132;2023-04-06T08:24:07;4.10;;;3.07;;
9418;SDS011;4748;50.802;7.132;2023-04-06T08:26:32;7.10;;;2.33;;
9418;SDS011;4748;50.802;7.132;2023-04-06T08:28:58;5.47;;;2.13;;
9418;SDS011;4748;50.802;7.132;2023-04-06T08:31:23;4.07;;;2.53;;
9418;SDS011;4748;50.802;7.132;2023-04-06T08:33:49;3.97;;;3.00;;
9418;SDS011;4748;50.802;7.132;2023-04-06T08:36:14;2.00;;;1.90;;
9418;SDS011;4748;50.802;7.132;2023-04-06T08:38:40;2.47;;;2.27;;
9418;SDS011;4748;50.802;7.132;2023-04-06T08:41:11;3.23;;;2.20;;
9418;SDS011;4748;50.802;7.132;2023-04-06T08:43:43;5.23;;;2.83;;
9418;SDS011;4748;50.802;7.132;2023-04-06T08:46:11;2.47;;;1.70;;
9418;SDS011;4748;50.802;7.132;2023-04-06T08:48:38;5.80;;;2.30;;
9418;SDS011;4748;50.802;7.132;2023-04-06T08:51:05;4.90;;;3.20;;
9418;SDS011;4748;50.802;7.132;2023-04-06T08:53:31;4.00;;;2.13;;
9418;SDS011;4748;50.802;7.132;2023-04-06T08:55:56;4.63;;;2.60;;
9418;SDS011;4748;50.802;7.132;2023-04-06T08:58:23;4.17;;;2.50;;
9418;SDS011;4748;50.802;7.132;2023-04-06T09:00:49;6.07;;;3.03;;
9418;SDS011;4748;50.802;7.132;2023-04-06T09:03:15;4.93;;;2.67;;
9418;SDS011;4748;50.802;7.132;2023-04-06T09:05:41;6.77;;;3.30;;
9418;SDS011;4748;50.802;7.132;2023-04-06T09:08:08;5.57;;;3.07;;
9418;SDS011;4748;50.802;7.132;2023-04-06T09:10:33;5.40;;;2.30;;
9418;SDS011;4748;50.802;7.132;2023-04-06T09:13:03;3.57;;;2.30;;
9418;SDS011;4748;50.802;7.132;2023-04-06T09:15:29;3.40;;;2.50;;
9418;SDS011;4748;50.802;7.132;2023-04-06T09:17:55;5.23;;;2.77;;
9418;SDS011;4748;50.802;7.132;2023-04-06T09:20:24;13.93;;;3.60;;
9418;SDS011;4748;50.802;7.132;2023-04-06T09:22:51;6.63;;;3.27;;
9418;SDS011;4748;50.802;7.132;2023-04-06T09:25:20;7.13;;;3.53;;
9418;SDS011;4748;50.802;7.132;2023-04-06T09:27:48;7.67;;;3.80;;
9418;SDS011;4748;50.802;7.132;2023-04-06T09:30:23;5.03;;;3.13;;
9418;SDS011;4748;50.802;7.132;2023-04-06T09:32:51;8.90;;;3.50;;
9418;SDS011;4748;50.802;7.132;2023-04-06T09:35:21;5.60;;;3.13;;
9418;SDS011;4748;50.802;7.132;2023-04-06T09:37:48;5.30;;;3.03;;
9418;SDS011;4748;50.802;7.132;2023-04-06T09:40:15;6.30;;;3.73;;
9418;SDS011;4748;50.802;7.132;2023-04-06T09:45:21;4.80;;;2.90;;
9418;SDS011;4748;50.802;7.132;2023-04-06T09:47:46;10.07;;;3.23;;
9418;SDS011;4748;50.802;7.132;2023-04-06T09:50:12;5.23;;;3.20;;
9418;SDS011;4748;50.802;7.132;2023-04-06T09:55:12;5.63;;;3.07;;
9418;SDS011;4748;50.802;7.132;2023-04-06T09:57:49;6.13;;;3.27;;
9418;SDS011;4748;50.802;7.132;2023-04-06T10:00:20;6.10;;;3.03;;
9418;SDS011;4748;50.802;7.132;2023-04-06T10:02:51;7.20;;;3.20;;
9418;SDS011;4748;50.802;7.132;2023-04-06T10:07:53;8.93;;;3.80;;
9418;SDS011;4748;50.802;7.132;2023-04-06T10:10:21;7.53;;;3.63;;
9418;SDS011;4748;50.802;7.132;2023-04-06T10:12:47;3.80;;;2.43;;
9418;SDS011;4748;50.802;7.132;2023-04-06T10:15:13;4.13;;;2.87;;
9418;SDS011;4748;50.802;7.132;2023-04-06T10:17:40;7.03;;;2.73;;
9418;SDS011;4748;50.802;7.132;2023-04-06T10:22:39;4.67;;;3.27;;
9418;SDS011;4748;50.802;7.132;2023-04-06T10:25:09;4.23;;;2.77;;
9418;SDS011;4748;50.802;7.132;2023-04-06T10:27:34;6.43;;;3.00;;
9418;SDS011;4748;50.802;7.132;2023-04-06T10:30:04;4.17;;;3.20;;
9418;SDS011;4748;50.802;7.132;2023-04-06T10:32:32;12.67;;;4.07;;
9418;SDS011;4748;50.802;7.132;2023-04-06T10:35:08;7.83;;;3.73;;
9418;SDS011;4748;50.802;7.132;2023-04-06T10:37:54;10.47;;;3.77;;
9418;SDS011;4748;50.802;7.132;2023-04-06T10:40:26;9.37;;;4.40;;
9418;SDS011;4748;50.802;7.132;2023-04-06T10:42:53;25.40;;;3.87;;
9418;SDS011;4748;50.802;7.132;2023-04-06T10:45:23;9.17;;;3.53;;
9418;SDS011;4748;50.802;7.132;2023-04-06T10:47:53;5.73;;;3.43;;
9418;SDS011;4748;50.802;7.132;2023-04-06T10:50:19;9.17;;;4.50;;
9418;SDS011;4748;50.802;7.132;2023-04-06T10:52:46;7.03;;;4.23;;
9418;SDS011;4748;50.802;7.132;2023-04-06T10:55:12;7.47;;;4.20;;
9418;SDS011;4748;50.802;7.132;2023-04-06T10:57:41;7.47;;;3.27;;
9418;SDS011;4748;50.802;7.132;2023-04-06T11:00:07;6.37;;;3.60;;
9418;SDS011;4748;50.802;7.132;2023-04-06T11:02:34;6.50;;;3.93;;
9418;SDS011;4748;50.802;7.132;2023-04-06T11:05:01;8.17;;;3.30;;
9418;SDS011;4748;50.802;7.132;2023-04-06T11:07:27;7.70;;;3.77;;
9418;SDS011;4748;50.802;7.132;2023-04-06T11:09:55;6.20;;;3.67;;
9418;SDS011;4748;50.802;7.132;2023-04-06T11:12:27;7.20;;;4.10;;
9418;SDS011;4748;50.802;7.132;2023-04-06T11:17:30;6.57;;;3.20;;
9418;SDS011;4748;50.802;7.132;2023-04-06T11:19:57;6.27;;;3.60;;
9418;SDS011;4748;50.802;7.132;2023-04-06T11:22:24;7.87;;;3.53;;
9418;SDS011;4748;50.802;7.132;2023-04-06T11:24:50;3.93;;;3.20;;
9418;SDS011;4748;50.802;7.132;2023-04-06T11:27:15;11.17;;;3.70;;
9418;SDS011;4748;50.802;7.132;2023-04-06T11:29:42;8.40;;;4.00;;
9418;SDS011;4748;50.802;7.132;2023-04-06T11:32:08;8.43;;;3.73;;
9418;SDS011;4748;50.802;7.132;2023-04-06T11:34:37;6.40;;;3.60;;
9418;SDS011;4748;50.802;7.132;2023-04-06T11:37:07;20.17;;;3.90;;
9418;SDS011;4748;50.802;7.132;2023-04-06T11:42:27;5.63;;;3.53;;
9418;SDS011;4748;50.802;7.132;2023-04-06T11:44:55;4.30;;;2.80;;
9418;SDS011;4748;50.802;7.132;2023-04-06T11:47:27;8.20;;;3.43;;
9418;SDS011;4748;50.802;7.132;2023-04-06T11:50:10;6.97;;;3.43;;
9418;SDS011;4748;50.802;7.132;2023-04-06T11:52:38;7.73;;;4.07;;
9418;SDS011;4748;50.802;7.132;2023-04-06T11:55:14;10.27;;;3.63;;
9418;SDS011;4748;50.802;7.132;2023-04-06T11:57:42;4.00;;;3.23;;
9418;SDS011;4748;50.802;7.132;2023-04-06T12:00:08;6.33;;;3.53;;
9418;SDS011;4748;50.802;7.132;2023-04-06T12:02:35;6.03;;;4.07;;
9418;SDS011;4748;50.802;7.132;2023-04-06T12:05:02;8.77;;;4.13;;
9418;SDS011;4748;50.802;7.132;2023-04-06T12:07:30;5.90;;;3.73;;
9418;SDS011;4748;50.802;7.132;2023-04-06T12:09:56;8.37;;;3.43;;
9418;SDS011;4748;50.802;7.132;2023-04-06T12:12:21;7.07;;;3.43;;
9418;SDS011;4748;50.802;7.132;2023-04-06T12:14:46;6.37;;;3.93;;
9418;SDS011;4748;50.802;7.132;2023-04-06T12:17:12;7.47;;;3.57;;
9418;SDS011;4748;50.802;7.132;2023-04-06T12:19:37;3.83;;;3.43;;
9418;SDS011;4748;50.802;7.132;2023-04-06T12:22:03;6.50;;;3.43;;
9418;SDS011;4748;50.802;7.132;2023-04-06T12:24:28;5.53;;;3.27;;
9418;SDS011;4748;50.802;7.132;2023-04-06T12:26:54;6.80;;;3.80;;
9418;SDS011;4748;50.802;7.132;2023-04-06T12:29:19;4.70;;;3.27;;
9418;SDS011;4748;50.802;7.132;2023-04-06T12:31:45;6.17;;;3.30;;
9418;SDS011;4748;50.802;7.132;2023-04-06T12:34:11;6.73;;;3.47;;
9418;SDS011;4748;50.802;7.132;2023-04-06T12:36:36;8.00;;;3.93;;
9418;SDS011;4748;50.802;7.132;2023-04-06T12:39:02;6.93;;;4.03;;
9418;SDS011;4748;50.802;7.132;2023-04-06T12:41:28;3.70;;;3.20;;
9418;SDS011;4748;50.802;7.132;2023-04-06T12:43:54;5.33;;;3.73;;
9418;SDS011;4748;50.802;7.132;2023-04-06T12:46:19;5.10;;;3.07;;
9418;SDS011;4748;50.802;7.132;2023-04-06T12:48:45;4.93;;;3.37;;
9418;SDS011;4748;50.802;7.132;2023-04-06T12:51:11;3.37;;;3.03;;
9418;SDS011;4748;50.802;7.132;2023-04-06T12:53:36;7.03;;;3.37;;
9418;SDS011;4748;50.802;7.132;2023-04-06T12:56:02;5.43;;;3.43;;
9418;SDS011;4748;50.802;7.132;2023-04-06T12:58:28;6.03;;;2.67;;
9418;SDS011;4748;50.802;7.132;2023-04-06T13:00:54;6.57;;;3.50;;
9418;SDS011;4748;50.802;7.132;2023-04-06T13:03:22;10.03;;;3.93;;
9418;SDS011;4748;50.802;7.132;2023-04-06T13:05:49;5.90;;;3.53;;
9418;SDS011;4748;50.802;7.132;2023-04-06T13:08:15;4.00;;;2.77;;
9418;SDS011;4748;50.802;7.132;2023-04-06T13:10:52;6.43;;;3.10;;
9418;SDS011;4748;50.802;7.132;2023-04-06T13:13:21;4.70;;;2.83;;
9418;SDS011;4748;50.802;7.132;2023-04-06T13:15:48;2.80;;;2.47;;
9418;SDS011;4748;50.802;7.132;2023-04-06T13:18:13;3.00;;;2.50;;
9418;SDS011;4748;50.802;7.132;2023-04-06T13:20:39;8.73;;;2.63;;
9418;SDS011;4748;50.802;7.132;2023-04-06T13:23:04;8.00;;;3.17;;
9418;SDS011;4748;50.802;7.132;2023-04-06T13:25:30;5.37;;;2.37;;
9418;SDS011;4748;50.802;7.132;2023-04-06T13:27:57;2.83;;;2.60;;
9418;SDS011;4748;50.802;7.132;2023-04-06T13:30:23;7.07;;;2.07;;
9418;SDS011;4748;50.802;7.132;2023-04-06T13:32:48;3.17;;;2.27;;
9418;SDS011;4748;50.802;7.132;2023-04-06T13:35:14;2.27;;;2.00;;
9418;SDS011;4748;50.802;7.132;2023-04-06T13:37:39;5.23;;;1.97;;
9418;SDS011;4748;50.802;7.132;2023-04-06T13:40:05;1.80;;;1.70;;
9418;SDS011;4748;50.802;7.132;2023-04-06T13:42:31;1.30;;;1.13;;
9418;SDS011;4748;50.802;7.132;2023-04-06T13:44:57;3.03;;;1.10;;
9418;SDS011;4748;50.802;7.132;2023-04-06T13:47:22;2.13;;;1.50;;
9418;SDS011;4748;50.802;7.132;2023-04-06T13:49:49;3.87;;;1.80;;
9418;SDS011;4748;50.802;7.132;2023-04-06T13:52:18;2.27;;;1.70;;
9418;SDS011;4748;50.802;7.132;2023-04-06T13:54:44;3.60;;;2.27;;
9418;SDS011;4748;50.802;7.132;2023-04-06T13:57:10;2.00;;;1.30;;
9418;SDS011;4748;50.802;7.132;2023-04-06T13:59:37;5.37;;;1.57;;
9418;SDS011;4748;50.802;7.132;2023-04-06T14:02:03;1.33;;;1.23;;
9418;SDS011;4748;50.802;7.132;2023-04-06T14:04:30;2.17;;;1.43;;
9418;SDS011;4748;50.802;7.132;2023-04-06T14:06:56;4.30;;;1.73;;
9418;SDS011;4748;50.802;7.132;2023-04-06T14:09:22;3.93;;;2.33;;
9418;SDS011;4748;50.802;7.132;2023-04-06T14:11:47;4.10;;;1.80;;
9418;SDS011;4748;50.802;7.132;2023-04-06T14:14:13;1.67;;;1.57;;
9418;SDS011;4748;50.802;7.132;2023-04-06T14:16:39;3.83;;;1.60;;
9418;SDS011;4748;50.802;7.132;2023-04-06T14:19:06;2.20;;;1.60;;
9418;SDS011;4748;50.802;7.132;2023-04-06T14:21:31;3.97;;;2.90;;
9418;SDS011;4748;50.802;7.132;2023-04-06T14:23:57;5.40;;;2.17;;
9418;SDS011;4748;50.802;7.132;2023-04-06T14:26:22;1.70;;;1.53;;
9418;SDS011;4748;50.802;7.132;2023-04-06T14:28:48;2.80;;;1.73;;
9418;SDS011;4748;50.802;7.132;2023-04-06T14:31:14;2.23;;;1.90;;
9418;SDS011;4748;50.802;7.132;2023-04-06T14:33:40;3.80;;;2.40;;
9418;SDS011;4748;50.802;7.132;2023-04-06T14:36:07;3.13;;;1.93;;
9418;SDS011;4748;50.802;7.132;2023-04-06T14:38:33;2.90;;;1.83;;
9418;SDS011;4748;50.802;7.132;2023-04-06T14:40:59;8.77;;;2.07;;
9418;SDS011;4748;50.802;7.132;2023-04-06T14:43:25;2.57;;;2.13;;
9418;SDS011;4748;50.802;7.132;2023-04-06T14:45:51;2.80;;;2.53;;
9418;SDS011;4748;50.802;7.132;2023-04-06T14:48:16;4.77;;;1.93;;
9418;SDS011;4748;50.802;7.132;2023-04-06T14:50:51;4.70;;;2.00;;
9418;SDS011;4748;50.802;7.132;2023-04-06T14:53:23;3.40;;;1.83;;
9418;SDS011;4748;50.802;7.132;2023-04-06T14:55:48;5.30;;;2.43;;
9418;SDS011;4748;50.802;7.132;2023-04-06T14:58:20;4.30;;;2.57;;
9418;SDS011;4748;50.802;7.132;2023-04-06T15:00:46;4.27;;;2.37;;
9418;SDS011;4748;50.802;7.132;2023-04-06T15:03:13;2.60;;;2.27;;
9418;SDS011;4748;50.802;7.132;2023-04-06T15:05:39;2.93;;;2.73;;
9418;SDS011;4748;50.802;7.132;2023-04-06T15:08:04;8.03;;;2.50;;
9418;SDS011;4748;50.802;7.132;2023-04-06T15:10:33;1.93;;;1.43;;
9418;SDS011;4748;50.802;7.132;2023-04-06T15:12:59;1.83;;;0.87;;
9418;SDS011;4748;50.802;7.132;2023-04-06T15:15:25;1.50;;;1.40;;
9418;SDS011;4748;50.802;7.132;2023-04-06T15:17:50;1.50;;;1.37;;
9418;SDS011;4748;50.802;7.132;2023-04-06T15:20:15;1.40;;;1.30;;
9418;SDS011;4748;50.802;7.132;2023-04-06T15:22:41;1.20;;;1.10;;
9418;SDS011;4748;50.802;7.132;2023-04-06T15:25:06;0.80;;;0.80;;